Terminal Aerodrome Forecast
Issued by NWS

Home | Current Version | Previous Version | Text Only | Print | Product List | Glossary On
Versions: 1 2 3 4 5 6 7 8 9 10 11 12 13 14
000
FTUS45 KRIW 311100
TAFJAC
TAF
KJAC 311121Z 3112/0112 VRB06KT P6SM VCSH SCT020 OVC050
      TEMPO 3112/3116 BKN025
     FM311800 24011KT P6SM VCSH SCT030 BKN060
     FM010100 25008KT P6SM BKN060
     FM010600 VRB04KT P6SM VCFG SCT005 SCT060
      AMD LTD TO CLD VIS AND WIND=

USA.gov is the U.S. government's official web portal to all federal, state and local government web resources and services.